Kastav — 9AA6417 — position and weather

sailwx.info

Track history (hours):
 
Tides and Currents Weather Stations Pressure Air Temp Water Temp Dewpoint Dewpoint Depression Visibility Wind Speed Wind Dir Waves Ship Positions

Kastav

Last reported at 2017-Sep-20 18:05 UTC. Time now 2017-Sep-20 18:39 UTC.
Position N 59°47' E 024°60'.

Length 195 m; draft 7.5 m.

MMSI: 238257000.

Date/timePositionNaut miles runAvg speedWind from/ knotsBaromVisibWave heightAir tempDewpointWater temp
2017-Sep-20 18:05N 59°47' E 024°60'113.6
2017-Sep-20 18:00N 59°47' E 024°58'713.4
2017-Sep-20 17:30N 59°46' E 024°45'713.4
2017-Sep-20 17:00N 59°44' E 024°32'713.2
2017-Sep-20 16:30N 59°43' E 024°19'1713.5
2017-Sep-20 15:17N 59°38' E 023°48'413.7
2017-Sep-20 15:00N 59°36' E 023°40'1813.9
2017-Sep-20 13:44N 59°31' E 023°07'30113.2
2017-Sep-19 14:53N 55°48' E 016°48'1113.9
2017-Sep-19 14:04N 55°45' E 016°29'314.0
2017-Sep-19 13:53N 55°44' E 016°24'513.6
2017-Sep-19 13:30N 55°43' E 016°15'713.8
2017-Sep-19 13:00N 55°42' E 016°04'714.0
2017-Sep-19 12:30N 55°40' E 015°51'713.8
2017-Sep-19 12:00N 55°38' E 015°40'713.7
2017-Sep-19 11:30N 55°37' E 015°28'713.7
2017-Sep-19 11:00N 55°34' E 015°17'813.8
2017-Sep-19 10:27N 55°31' E 015°04'613.7
2017-Sep-19 10:00N 55°28' E 014°55'713.8
2017-Sep-19 09:30N 55°25' E 014°43'713.6
2017-Sep-19 09:00N 55°20' E 014°36'713.9
2017-Sep-19 08:31N 55°15' E 014°29'713.8
2017-Sep-19 08:00N 55°10' E 014°19'1514.0
2017-Sep-19 06:56N 55°11' E 013°52'2213.9
2017-Sep-19 05:21N 55°13' E 013°14'513.7
2017-Sep-19 05:00N 55°14' E 013°06'713.6
2017-Sep-19 04:30N 55°15' E 012°54'713.7
2017-Sep-19 04:00N 55°17' E 012°43'611.7
2017-Sep-19 03:30N 55°22' E 012°39'612.9
2017-Sep-19 03:00N 55°29' E 012°41'5 9.7
2017-Sep-19 02:30N 55°33' E 012°42'4 8.2
2017-Sep-19 02:00N 55°37' E 012°42'611.6
2017-Sep-19 01:30N 55°43' E 012°41'612.8
2017-Sep-19 01:00N 55°50' E 012°42'612.9
2017-Sep-19 00:30N 55°56' E 012°39'612.8
2017-Sep-19 00:00N 56°02' E 012°39'611.6
2017-Sep-18 23:30N 56°07' E 012°32'4 8.1
2017-Sep-18 23:00N 56°09' E 012°27'6012.9
2017-Sep-18 18:20N 57°03' E 011°39'713.4
2017-Sep-18 17:48N 57°10' E 011°34'413.5
2017-Sep-18 17:30N 57°14' E 011°31'713.6
2017-Sep-18 16:59N 57°20' E 011°28'613.4
2017-Sep-18 16:30N 57°27' E 011°24'713.3
2017-Sep-18 16:00N 57°32' E 011°16'713.7
2017-Sep-18 15:30N 57°36' E 011°07'713.6
2017-Sep-18 15:00N 57°41' E 010°57'713.5
2017-Sep-18 14:30N 57°46' E 010°48'613.0
2017-Sep-18 14:00N 57°49' E 010°38'713.7
2017-Sep-18 13:30N 57°48' E 010°25'713.7
2017-Sep-18 13:00N 57°48' E 010°12'713.2
2017-Sep-18 12:30N 57°49' E 009°60'10312.9
2017-Sep-18 04:30N 56°43' E 007°33'713.6
2017-Sep-18 04:00N 56°37' E 007°27'713.7
2017-Sep-18 03:29N 56°31' E 007°22'713.6
2017-Sep-18 02:59N 56°25' E 007°15'28812.4
2017-Sep-17 03:50N 52°06' E 003°38'413.6
2017-Sep-17 03:30N 52°05' E 003°45'612.0
2017-Sep-17 03:00N 52°03' E 003°54'4 7.8
2017-Sep-17 02:30N 52°01' E 003°59'611.8
2017-Sep-17 02:00N 51°58' E 004°08'510.8
2017-Sep-17 01:30N 51°55' E 004°15'5 9.2
2017-Sep-17 01:00N 51°54' E 004°22'3 5.5
2017-Sep-17 00:30N 51°54' E 004°26'0 1.0
2017-Sep-17 00:00N 51°53' E 004°27'0 0.1
2017-Sep-16 23:31N 51°53' E 004°27'0 0.0
2017-Sep-16 22:57N 51°53' E 004°27'0 0.0
2017-Sep-16 22:27N 51°53' E 004°27'0 0.0
2017-Sep-16 21:57N 51°53' E 004°27'0 0.0
2017-Sep-16 21:25N 51°53' E 004°27'0 0.0
2017-Sep-16 20:57N 51°53' E 004°27'0 0.0
2017-Sep-16 20:27N 51°53' E 004°27'0 0.0
2017-Sep-16 19:57N 51°53' E 004°27'0 0.0
2017-Sep-16 19:27N 51°53' E 004°27'0 0.0
2017-Sep-16 18:57N 51°53' E 004°27'0 0.0
2017-Sep-16 18:27N 51°53' E 004°27'0 0.0
2017-Sep-16 17:57N 51°53' E 004°27'0 0.0
2017-Sep-16 17:27N 51°53' E 004°27'0 0.0
2017-Sep-16 16:57N 51°53' E 004°27'0 0.0
2017-Sep-16 16:27N 51°53' E 004°27'0 0.0
2017-Sep-16 15:57N 51°53' E 004°27'0 0.0
2017-Sep-16 15:27N 51°53' E 004°27'0 0.0
2017-Sep-16 14:57N 51°53' E 004°27'0 0.0
2017-Sep-16 14:27N 51°53' E 004°27'0 0.0
2017-Sep-16 13:57N 51°53' E 004°27'0 0.0
2017-Sep-16 13:27N 51°53' E 004°27'0 0.0
2017-Sep-16 12:57N 51°53' E 004°27'0 0.0
2017-Sep-16 12:28N 51°53' E 004°27'0 0.0
2017-Sep-16 11:58N 51°53' E 004°27'0 0.0
2017-Sep-16 11:25N 51°53' E 004°27'0 0.0
2017-Sep-16 10:58N 51°53' E 004°27'0 0.0
2017-Sep-16 10:28N 51°53' E 004°27'0 0.0
2017-Sep-16 09:58N 51°53' E 004°27'0 0.0
2017-Sep-16 09:28N 51°53' E 004°27'0 0.0
2017-Sep-16 08:58N 51°53' E 004°27'0 0.0
2017-Sep-16 08:25N 51°53' E 004°27'0 0.0
2017-Sep-16 07:58N 51°53' E 004°27'0 0.0
2017-Sep-16 07:28N 51°53' E 004°27'0 0.0
2017-Sep-16 06:58N 51°53' E 004°27'0 0.0
2017-Sep-16 06:28N 51°53' E 004°27'0 0.0
2017-Sep-16 05:58N 51°53' E 004°27'0 0.0
2017-Sep-16 05:28N 51°53' E 004°27'0 0.0
2017-Sep-16 04:58N 51°53' E 004°27'0 0.0
2017-Sep-16 04:28N 51°53' E 004°27'0 0.0
2017-Sep-16 03:58N 51°53' E 004°27'0 0.0
2017-Sep-16 03:25N 51°53' E 004°27'0 0.0
2017-Sep-16 02:58N 51°53' E 004°27'0 0.0
2017-Sep-16 02:28N 51°53' E 004°27'0 0.0
2017-Sep-16 01:58N 51°53' E 004°27'0 0.0
2017-Sep-16 01:25N 51°53' E 004°27'0 0.0
2017-Sep-16 00:58N 51°53' E 004°27'0 0.0
2017-Sep-16 00:28N 51°53' E 004°27'0 0.0
2017-Sep-15 23:58N 51°53' E 004°27'0 0.0
2017-Sep-15 23:28N 51°53' E 004°27'0 0.0
2017-Sep-15 22:58N 51°53' E 004°27'0 0.0
2017-Sep-15 22:28N 51°53' E 004°27'0 0.0
2017-Sep-15 21:58N 51°53' E 004°27'0 0.0
2017-Sep-15 21:28N 51°53' E 004°27'0 0.0
2017-Sep-15 20:58N 51°53' E 004°27'0 0.0
2017-Sep-15 20:28N 51°53' E 004°27'0 0.0
2017-Sep-15 19:55N 51°53' E 004°27'0 0.0
2017-Sep-15 19:28N 51°53' E 004°27'0 0.0
2017-Sep-15 18:58N 51°53' E 004°27'0 0.0
2017-Sep-15 18:28N 51°53' E 004°27'0 0.0
2017-Sep-15 17:58N 51°53' E 004°27'0 0.0
2017-Sep-15 17:28N 51°53' E 004°27'0 0.0
2017-Sep-15 16:58N 51°53' E 004°27'0 0.0
2017-Sep-15 16:28N 51°53' E 004°27'0 0.0
2017-Sep-15 15:58N 51°53' E 004°27'0 0.0
2017-Sep-15 15:28N 51°53' E 004°27'0 0.0
2017-Sep-15 14:58N 51°53' E 004°27'0 0.0
2017-Sep-15 14:28N 51°53' E 004°27'0 0.0
2017-Sep-15 13:58N 51°53' E 004°27'0 0.0
2017-Sep-15 13:28N 51°53' E 004°27'0 0.0
2017-Sep-15 13:00N 51°53' E 004°27'1 2.2
2017-Sep-15 12:30N 51°54' E 004°26'3 5.3
2017-Sep-15 12:00N 51°54' E 004°22'2 5.0
2017-Sep-15 11:30N 51°53' E 004°18'1 1.1
2017-Sep-15 11:00N 51°53' E 004°17'0 0.0
2017-Sep-15 10:30N 51°53' E 004°17'0 0.0
2017-Sep-15 10:00N 51°53' E 004°17'0 0.0
2017-Sep-15 09:31N 51°53' E 004°17'0 0.0
2017-Sep-15 08:55N 51°53' E 004°17'0 0.0
2017-Sep-15 08:25N 51°53' E 004°17'0 0.0
2017-Sep-15 08:01N 51°53' E 004°17'0 0.0
2017-Sep-15 07:30N 51°53' E 004°17'0 0.0
2017-Sep-15 07:01N 51°53' E 004°17'0 0.0
2017-Sep-15 06:24N 51°53' E 004°17'0 0.0
2017-Sep-15 05:55N 51°53' E 004°17'0 0.0
2017-Sep-15 05:25N 51°53' E 004°17'0 0.0
2017-Sep-15 05:01N 51°53' E 004°17'0 0.0
2017-Sep-15 04:31N 51°53' E 004°17'0 0.0
2017-Sep-15 04:00N 51°53' E 004°17'0 0.0
2017-Sep-15 03:25N 51°53' E 004°17'0 0.0
2017-Sep-15 02:54N 51°53' E 004°17'0 0.0
2017-Sep-15 02:30N 51°53' E 004°17'0 0.0
2017-Sep-15 01:54N 51°53' E 004°17'0 0.0
2017-Sep-15 01:25N 51°53' E 004°17'0 0.0
2017-Sep-15 01:00N 51°53' E 004°17'0 0.0
2017-Sep-15 00:25N 51°53' E 004°17'0 0.0
2017-Sep-15 00:00N 51°53' E 004°17'0 0.0
2017-Sep-14 23:24N 51°53' E 004°17'0 0.0
2017-Sep-14 22:55N 51°53' E 004°17'0 0.0
2017-Sep-14 22:30N 51°53' E 004°17'0 0.0
2017-Sep-14 21:55N 51°53' E 004°17'0 0.0
2017-Sep-14 21:30N 51°53' E 004°17'0 0.0
2017-Sep-14 21:01N 51°53' E 004°17'0 0.0
2017-Sep-14 20:30N 51°53' E 004°17'0 0.0
2017-Sep-14 20:00N 51°53' E 004°17'0 0.0
2017-Sep-14 19:30N 51°53' E 004°17'0 0.0
2017-Sep-14 18:55N 51°53' E 004°17'0 0.0
2017-Sep-14 18:30N 51°53' E 004°17'0 0.0
2017-Sep-14 17:55N 51°53' E 004°17'0 0.0
2017-Sep-14 17:26N 51°53' E 004°17'0 0.0
2017-Sep-14 17:00N 51°53' E 004°17'0 0.0
2017-Sep-14 16:26N 51°53' E 004°17'0 0.0
2017-Sep-14 15:56N 51°53' E 004°17'0 0.0
2017-Sep-14 15:30N 51°53' E 004°17'0 0.0
2017-Sep-14 15:00N 51°53' E 004°17'0 0.0
2017-Sep-14 14:25N 51°53' E 004°17'0 0.0
2017-Sep-14 14:00N 51°53' E 004°17'0 0.0
2017-Sep-14 13:30N 51°53' E 004°17'0 0.0
2017-Sep-14 12:55N 51°53' E 004°17'0 0.0
2017-Sep-14 12:26N 51°53' E 004°17'0 0.0
2017-Sep-14 11:56N 51°53' E 004°17'0 0.0
2017-Sep-14 11:30N 51°53' E 004°17'0 0.0
2017-Sep-14 10:57N 51°53' E 004°17'0 0.0
2017-Sep-14 10:30N 51°53' E 004°17'0 0.0
2017-Sep-14 10:00N 51°53' E 004°17'0 0.0
2017-Sep-14 09:30N 51°53' E 004°17'1 2.0
2017-Sep-14 09:00N 51°53' E 004°18'3 5.7
2017-Sep-14 08:30N 51°55' E 004°14'4 7.8
2017-Sep-14 08:00N 51°57' E 004°10'4 8.8
2017-Sep-14 07:30N 51°59' E 004°03'510.0
2017-Sep-14 07:00N 52°00' E 003°55'5 9.3
2017-Sep-14 06:30N 51°59' E 003°48'2 3.5
2017-Sep-14 06:00N 51°58' E 003°46'2 3.5
2017-Sep-14 05:30N 51°59' E 003°49'2 4.5
2017-Sep-14 05:00N 52°00' E 003°46'3 5.9
2017-Sep-14 04:30N 51°58' E 003°42'5411.5
2017-Sep-13 23:48N 51°35' E 002°22'413.0
2017-Sep-13 23:30N 51°32' E 002°19'713.3
2017-Sep-13 23:00N 51°27' E 002°12'612.3
2017-Sep-13 22:30N 51°21' E 002°09'613.3
2017-Sep-13 22:00N 51°15' E 002°07'713.8
2017-Sep-13 21:31N 51°11' E 001°58'714.1
2017-Sep-13 21:00N 51°08' E 001°48'714.5
2017-Sep-13 20:30N 51°03' E 001°39'714.8
2017-Sep-13 20:00N 50°58' E 001°32'6313.3
2017-Sep-13 15:16N 50°22' E 000°10'515.0
2017-Sep-13 14:56N 50°21' E 000°02'715.2
2017-Sep-13 14:30N 50°19' W 000°08'2916.0
2017-Sep-13 12:40N 50°12' W 000°52'316.8
2017-Sep-13 12:30N 50°11' W 000°56'1016.7
2017-Sep-13 11:53N 50°09' W 001°12'616.5
2017-Sep-13 11:30N 50°07' W 001°21'816.3
2017-Sep-13 11:01N 50°05' W 001°34'815.8
2017-Sep-13 10:31N 50°03' W 001°46'815.4
2017-Sep-13 10:00N 50°01' W 001°57'3313.7
2017-Sep-13 07:37N 49°53' W 002°46'413.1
2017-Sep-13 07:20N 49°52' W 002°52'412.4
2017-Sep-13 07:00N 49°49' W 002°57'612.7
2017-Sep-13 06:30N 49°46' W 003°06'612.7
2017-Sep-13 06:00N 49°43' W 003°14'612.9
2017-Sep-13 05:30N 49°40' W 003°23'712.8
2017-Sep-13 04:59N 49°36' W 003°32'  
Track history (hours):
 
Tides and Currents Weather Stations Pressure Air Temp Water Temp Dewpoint Dewpoint Depression Visibility Wind Speed Wind Dir Waves Ship Positions

Kastav

Last reported at 2017-Sep-20 18:05 UTC. Time now 2017-Sep-20 18:39 UTC.
Position N 59°47' E 024°60'.

Length 195 m; draft 7.5 m.

MMSI: 238257000.

Date/timePositionNaut miles runAvg speedWind from/ knotsBaromVisibWave heightAir tempDewpointWater temp
2017-Sep-20 18:05N 59°47' E 024°60'113.6
2017-Sep-20 18:00N 59°47' E 024°58'713.4
2017-Sep-20 17:30N 59°46' E 024°45'713.4
2017-Sep-20 17:00N 59°44' E 024°32'713.2
2017-Sep-20 16:30N 59°43' E 024°19'1713.5
2017-Sep-20 15:17N 59°38' E 023°48'413.7
2017-Sep-20 15:00N 59°36' E 023°40'1813.9
2017-Sep-20 13:44N 59°31' E 023°07'30113.2
2017-Sep-19 14:53N 55°48' E 016°48'1113.9
2017-Sep-19 14:04N 55°45' E 016°29'314.0
2017-Sep-19 13:53N 55°44' E 016°24'513.6
2017-Sep-19 13:30N 55°43' E 016°15'713.8
2017-Sep-19 13:00N 55°42' E 016°04'714.0
2017-Sep-19 12:30N 55°40' E 015°51'713.8
2017-Sep-19 12:00N 55°38' E 015°40'713.7
2017-Sep-19 11:30N 55°37' E 015°28'713.7
2017-Sep-19 11:00N 55°34' E 015°17'813.8
2017-Sep-19 10:27N 55°31' E 015°04'613.7
2017-Sep-19 10:00N 55°28' E 014°55'713.8
2017-Sep-19 09:30N 55°25' E 014°43'713.6
2017-Sep-19 09:00N 55°20' E 014°36'713.9
2017-Sep-19 08:31N 55°15' E 014°29'713.8
2017-Sep-19 08:00N 55°10' E 014°19'1514.0
2017-Sep-19 06:56N 55°11' E 013°52'2213.9
2017-Sep-19 05:21N 55°13' E 013°14'513.7
2017-Sep-19 05:00N 55°14' E 013°06'713.6
2017-Sep-19 04:30N 55°15' E 012°54'713.7
2017-Sep-19 04:00N 55°17' E 012°43'611.7
2017-Sep-19 03:30N 55°22' E 012°39'612.9
2017-Sep-19 03:00N 55°29' E 012°41'5 9.7
2017-Sep-19 02:30N 55°33' E 012°42'4 8.2
2017-Sep-19 02:00N 55°37' E 012°42'611.6
2017-Sep-19 01:30N 55°43' E 012°41'612.8
2017-Sep-19 01:00N 55°50' E 012°42'612.9
2017-Sep-19 00:30N 55°56' E 012°39'612.8
2017-Sep-19 00:00N 56°02' E 012°39'611.6
2017-Sep-18 23:30N 56°07' E 012°32'4 8.1
2017-Sep-18 23:00N 56°09' E 012°27'6012.9
2017-Sep-18 18:20N 57°03' E 011°39'713.4
2017-Sep-18 17:48N 57°10' E 011°34'413.5
2017-Sep-18 17:30N 57°14' E 011°31'713.6
2017-Sep-18 16:59N 57°20' E 011°28'613.4
2017-Sep-18 16:30N 57°27' E 011°24'713.3
2017-Sep-18 16:00N 57°32' E 011°16'713.7
2017-Sep-18 15:30N 57°36' E 011°07'713.6
2017-Sep-18 15:00N 57°41' E 010°57'713.5
2017-Sep-18 14:30N 57°46' E 010°48'613.0
2017-Sep-18 14:00N 57°49' E 010°38'713.7
2017-Sep-18 13:30N 57°48' E 010°25'713.7
2017-Sep-18 13:00N 57°48' E 010°12'713.2
2017-Sep-18 12:30N 57°49' E 009°60'10312.9
2017-Sep-18 04:30N 56°43' E 007°33'713.6
2017-Sep-18 04:00N 56°37' E 007°27'713.7
2017-Sep-18 03:29N 56°31' E 007°22'713.6
2017-Sep-18 02:59N 56°25' E 007°15'28812.4
2017-Sep-17 03:50N 52°06' E 003°38'413.6
2017-Sep-17 03:30N 52°05' E 003°45'612.0
2017-Sep-17 03:00N 52°03' E 003°54'4 7.8
2017-Sep-17 02:30N 52°01' E 003°59'611.8
2017-Sep-17 02:00N 51°58' E 004°08'510.8
2017-Sep-17 01:30N 51°55' E 004°15'5 9.2
2017-Sep-17 01:00N 51°54' E 004°22'3 5.5
2017-Sep-17 00:30N 51°54' E 004°26'0 1.0
2017-Sep-17 00:00N 51°53' E 004°27'0 0.1
2017-Sep-16 23:31N 51°53' E 004°27'0 0.0
2017-Sep-16 22:57N 51°53' E 004°27'0 0.0
2017-Sep-16 22:27N 51°53' E 004°27'0 0.0
2017-Sep-16 21:57N 51°53' E 004°27'0 0.0
2017-Sep-16 21:25N 51°53' E 004°27'0 0.0
2017-Sep-16 20:57N 51°53' E 004°27'0 0.0
2017-Sep-16 20:27N 51°53' E 004°27'0 0.0
2017-Sep-16 19:57N 51°53' E 004°27'0 0.0
2017-Sep-16 19:27N 51°53' E 004°27'0 0.0
2017-Sep-16 18:57N 51°53' E 004°27'0 0.0
2017-Sep-16 18:27N 51°53' E 004°27'0 0.0
2017-Sep-16 17:57N 51°53' E 004°27'0 0.0
2017-Sep-16 17:27N 51°53' E 004°27'0 0.0
2017-Sep-16 16:57N 51°53' E 004°27'0 0.0
2017-Sep-16 16:27N 51°53' E 004°27'0 0.0
2017-Sep-16 15:57N 51°53' E 004°27'0 0.0
2017-Sep-16 15:27N 51°53' E 004°27'0 0.0
2017-Sep-16 14:57N 51°53' E 004°27'0 0.0
2017-Sep-16 14:27N 51°53' E 004°27'0 0.0
2017-Sep-16 13:57N 51°53' E 004°27'0 0.0
2017-Sep-16 13:27N 51°53' E 004°27'0 0.0
2017-Sep-16 12:57N 51°53' E 004°27'0 0.0
2017-Sep-16 12:28N 51°53' E 004°27'0 0.0
2017-Sep-16 11:58N 51°53' E 004°27'0 0.0
2017-Sep-16 11:25N 51°53' E 004°27'0 0.0
2017-Sep-16 10:58N 51°53' E 004°27'0 0.0
2017-Sep-16 10:28N 51°53' E 004°27'0 0.0
2017-Sep-16 09:58N 51°53' E 004°27'0 0.0
2017-Sep-16 09:28N 51°53' E 004°27'0 0.0
2017-Sep-16 08:58N 51°53' E 004°27'0 0.0
2017-Sep-16 08:25N 51°53' E 004°27'0 0.0
2017-Sep-16 07:58N 51°53' E 004°27'0 0.0
2017-Sep-16 07:28N 51°53' E 004°27'0 0.0
2017-Sep-16 06:58N 51°53' E 004°27'0 0.0
2017-Sep-16 06:28N 51°53' E 004°27'0 0.0
2017-Sep-16 05:58N 51°53' E 004°27'0 0.0
2017-Sep-16 05:28N 51°53' E 004°27'0 0.0
2017-Sep-16 04:58N 51°53' E 004°27'0 0.0
2017-Sep-16 04:28N 51°53' E 004°27'0 0.0
2017-Sep-16 03:58N 51°53' E 004°27'0 0.0
2017-Sep-16 03:25N 51°53' E 004°27'0 0.0
2017-Sep-16 02:58N 51°53' E 004°27'0 0.0
2017-Sep-16 02:28N 51°53' E 004°27'0 0.0
2017-Sep-16 01:58N 51°53' E 004°27'0 0.0
2017-Sep-16 01:25N 51°53' E 004°27'0 0.0
2017-Sep-16 00:58N 51°53' E 004°27'0 0.0
2017-Sep-16 00:28N 51°53' E 004°27'0 0.0
2017-Sep-15 23:58N 51°53' E 004°27'0 0.0
2017-Sep-15 23:28N 51°53' E 004°27'0 0.0
2017-Sep-15 22:58N 51°53' E 004°27'0 0.0
2017-Sep-15 22:28N 51°53' E 004°27'0 0.0
2017-Sep-15 21:58N 51°53' E 004°27'0 0.0
2017-Sep-15 21:28N 51°53' E 004°27'0 0.0
2017-Sep-15 20:58N 51°53' E 004°27'0 0.0
2017-Sep-15 20:28N 51°53' E 004°27'0 0.0
2017-Sep-15 19:55N 51°53' E 004°27'0 0.0
2017-Sep-15 19:28N 51°53' E 004°27'0 0.0
2017-Sep-15 18:58N 51°53' E 004°27'0 0.0
2017-Sep-15 18:28N 51°53' E 004°27'0 0.0
2017-Sep-15 17:58N 51°53' E 004°27'0 0.0
2017-Sep-15 17:28N 51°53' E 004°27'0 0.0
2017-Sep-15 16:58N 51°53' E 004°27'0 0.0
2017-Sep-15 16:28N 51°53' E 004°27'0 0.0
2017-Sep-15 15:58N 51°53' E 004°27'0 0.0
2017-Sep-15 15:28N 51°53' E 004°27'0 0.0
2017-Sep-15 14:58N 51°53' E 004°27'0 0.0
2017-Sep-15 14:28N 51°53' E 004°27'0 0.0
2017-Sep-15 13:58N 51°53' E 004°27'0 0.0
2017-Sep-15 13:28N 51°53' E 004°27'0 0.0
2017-Sep-15 13:00N 51°53' E 004°27'1 2.2
2017-Sep-15 12:30N 51°54' E 004°26'3 5.3
2017-Sep-15 12:00N 51°54' E 004°22'2 5.0
2017-Sep-15 11:30N 51°53' E 004°18'1 1.1
2017-Sep-15 11:00N 51°53' E 004°17'0 0.0
2017-Sep-15 10:30N 51°53' E 004°17'0 0.0
2017-Sep-15 10:00N 51°53' E 004°17'0 0.0
2017-Sep-15 09:31N 51°53' E 004°17'0 0.0
2017-Sep-15 08:55N 51°53' E 004°17'0 0.0
2017-Sep-15 08:25N 51°53' E 004°17'0 0.0
2017-Sep-15 08:01N 51°53' E 004°17'0 0.0
2017-Sep-15 07:30N 51°53' E 004°17'0 0.0
2017-Sep-15 07:01N 51°53' E 004°17'0 0.0
2017-Sep-15 06:24N 51°53' E 004°17'0 0.0
2017-Sep-15 05:55N 51°53' E 004°17'0 0.0
2017-Sep-15 05:25N 51°53' E 004°17'0 0.0
2017-Sep-15 05:01N 51°53' E 004°17'0 0.0
2017-Sep-15 04:31N 51°53' E 004°17'0 0.0
2017-Sep-15 04:00N 51°53' E 004°17'0 0.0
2017-Sep-15 03:25N 51°53' E 004°17'0 0.0
2017-Sep-15 02:54N 51°53' E 004°17'0 0.0
2017-Sep-15 02:30N 51°53' E 004°17'0 0.0
2017-Sep-15 01:54N 51°53' E 004°17'0 0.0
2017-Sep-15 01:25N 51°53' E 004°17'0 0.0
2017-Sep-15 01:00N 51°53' E 004°17'0 0.0
2017-Sep-15 00:25N 51°53' E 004°17'0 0.0
2017-Sep-15 00:00N 51°53' E 004°17'0 0.0
2017-Sep-14 23:24N 51°53' E 004°17'0 0.0
2017-Sep-14 22:55N 51°53' E 004°17'0 0.0
2017-Sep-14 22:30N 51°53' E 004°17'0 0.0
2017-Sep-14 21:55N 51°53' E 004°17'0 0.0
2017-Sep-14 21:30N 51°53' E 004°17'0 0.0
2017-Sep-14 21:01N 51°53' E 004°17'0 0.0
2017-Sep-14 20:30N 51°53' E 004°17'0 0.0
2017-Sep-14 20:00N 51°53' E 004°17'0 0.0
2017-Sep-14 19:30N 51°53' E 004°17'0 0.0
2017-Sep-14 18:55N 51°53' E 004°17'0 0.0
2017-Sep-14 18:30N 51°53' E 004°17'0 0.0
2017-Sep-14 17:55N 51°53' E 004°17'0 0.0
2017-Sep-14 17:26N 51°53' E 004°17'0 0.0
2017-Sep-14 17:00N 51°53' E 004°17'0 0.0
2017-Sep-14 16:26N 51°53' E 004°17'0 0.0
2017-Sep-14 15:56N 51°53' E 004°17'0 0.0
2017-Sep-14 15:30N 51°53' E 004°17'0 0.0
2017-Sep-14 15:00N 51°53' E 004°17'0 0.0
2017-Sep-14 14:25N 51°53' E 004°17'0 0.0
2017-Sep-14 14:00N 51°53' E 004°17'0 0.0
2017-Sep-14 13:30N 51°53' E 004°17'0 0.0
2017-Sep-14 12:55N 51°53' E 004°17'0 0.0
2017-Sep-14 12:26N 51°53' E 004°17'0 0.0
2017-Sep-14 11:56N 51°53' E 004°17'0 0.0
2017-Sep-14 11:30N 51°53' E 004°17'0 0.0
2017-Sep-14 10:57N 51°53' E 004°17'0 0.0
2017-Sep-14 10:30N 51°53' E 004°17'0 0.0
2017-Sep-14 10:00N 51°53' E 004°17'0 0.0
2017-Sep-14 09:30N 51°53' E 004°17'1 2.0
2017-Sep-14 09:00N 51°53' E 004°18'3 5.7
2017-Sep-14 08:30N 51°55' E 004°14'4 7.8
2017-Sep-14 08:00N 51°57' E 004°10'4 8.8
2017-Sep-14 07:30N 51°59' E 004°03'510.0
2017-Sep-14 07:00N 52°00' E 003°55'5 9.3
2017-Sep-14 06:30N 51°59' E 003°48'2 3.5
2017-Sep-14 06:00N 51°58' E 003°46'2 3.5
2017-Sep-14 05:30N 51°59' E 003°49'2 4.5
2017-Sep-14 05:00N 52°00' E 003°46'3 5.9
2017-Sep-14 04:30N 51°58' E 003°42'5411.5
2017-Sep-13 23:48N 51°35' E 002°22'413.0
2017-Sep-13 23:30N 51°32' E 002°19'713.3
2017-Sep-13 23:00N 51°27' E 002°12'612.3
2017-Sep-13 22:30N 51°21' E 002°09'613.3
2017-Sep-13 22:00N 51°15' E 002°07'713.8
2017-Sep-13 21:31N 51°11' E 001°58'714.1
2017-Sep-13 21:00N 51°08' E 001°48'714.5
2017-Sep-13 20:30N 51°03' E 001°39'714.8
2017-Sep-13 20:00N 50°58' E 001°32'6313.3
2017-Sep-13 15:16N 50°22' E 000°10'515.0
2017-Sep-13 14:56N 50°21' E 000°02'715.2
2017-Sep-13 14:30N 50°19' W 000°08'2916.0
2017-Sep-13 12:40N 50°12' W 000°52'316.8
2017-Sep-13 12:30N 50°11' W 000°56'1016.7
2017-Sep-13 11:53N 50°09' W 001°12'616.5
2017-Sep-13 11:30N 50°07' W 001°21'816.3
2017-Sep-13 11:01N 50°05' W 001°34'815.8
2017-Sep-13 10:31N 50°03' W 001°46'815.4
2017-Sep-13 10:00N 50°01' W 001°57'3313.7
2017-Sep-13 07:37N 49°53' W 002°46'413.1
2017-Sep-13 07:20N 49°52' W 002°52'412.4
2017-Sep-13 07:00N 49°49' W 002°57'612.7
2017-Sep-13 06:30N 49°46' W 003°06'612.7
2017-Sep-13 06:00N 49°43' W 003°14'612.9
2017-Sep-13 05:30N 49°40' W 003°23'712.8
2017-Sep-13 04:59N 49°36' W 003°32'  

Dump ship's entire track history